Time;durP1;ratioP1;P1;durP2;ratioP2;P2;SDS_P1;SDS_P2;PMS_P1;PMS_P2;Temp;Humidity;BMP_temperature;BMP_pressure;BME280_temperature;BME280_humidity;BME280_pressure;Samples;Min_cycle;Max_cycle;Signal;HPM_P1;HPM_P2
2023/04/18 00:00:13;;;;;;;13.80;4.90;;;;;;;22.34;25.08;100556.98;108033;1256;59208;-66
2023/04/18 00:02:42;;;;;;;10.50;5.10;;;;;;;22.60;24.70;100552.06;108032;1256;71763;-67
2023/04/18 00:05:11;;;;;;;9.90;4.70;;;;;;;22.81;24.78;100556.23;107886;1256;70303;-65
2023/04/18 00:07:40;;;;;;;10.80;4.90;;;;;;;22.99;24.34;100552.30;107843;1257;73004;-68
2023/04/18 00:10:08;;;;;;;10.60;4.90;;;;;;;22.76;24.57;100550.55;108157;1253;147464;-69
2023/04/18 00:12:36;;;;;;;12.40;5.20;;;;;;;22.92;24.58;100551.62;108183;1253;61243;-66
2023/04/18 00:15:06;;;;;;;8.60;5.00;;;;;;;22.98;24.55;100547.21;108161;1253;71893;-65
2023/04/18 00:17:37;;;;;;;12.90;5.20;;;;;;;23.01;24.44;100545.66;108189;1254;70631;-65
2023/04/18 00:20:09;;;;;;;12.00;5.40;;;;;;;23.03;24.49;100548.98;108118;1254;72543;-65
2023/04/18 00:22:41;;;;;;;12.30;5.00;;;;;;;22.76;24.58;100544.70;108133;1253;60613;-65
2023/04/18 00:25:10;;;;;;;9.10;4.60;;;;;;;23.04;24.34;100548.14;108188;1253;60031;-65
2023/04/18 00:27:38;;;;;;;13.80;5.00;;;;;;;22.64;24.98;100550.50;108150;1253;74327;-66
2023/04/18 00:30:07;;;;;;;10.10;4.70;;;;;;;22.74;24.51;100547.92;108239;1253;69893;-66
2023/04/18 00:32:37;;;;;;;10.60;4.60;;;;;;;22.79;24.74;100551.61;108207;1253;72927;-67
2023/04/18 00:35:05;;;;;;;10.60;5.10;;;;;;;22.70;24.62;100547.14;108181;1253;59602;-67
2023/04/18 00:37:34;;;;;;;9.90;4.70;;;;;;;22.94;24.47;100543.23;108148;1253;61582;-66
2023/04/18 00:40:04;;;;;;;10.30;4.80;;;;;;;23.08;24.48;100545.84;108134;1253;73443;-66
2023/04/18 00:42:32;;;;;;;13.90;5.60;;;;;;;23.17;24.53;100546.84;108101;1253;71528;-66
2023/04/18 00:45:00;;;;;;;11.40;5.30;;;;;;;22.98;24.68;100549.51;108191;1253;71344;-66
2023/04/18 00:47:29;;;;;;;14.90;7.50;;;;;;;22.96;24.84;100545.39;108218;1253;59766;-65
2023/04/18 00:49:58;;;;;;;14.90;5.90;;;;;;;23.12;24.61;100549.46;108034;1254;61198;-66
2023/04/18 00:52:26;;;;;;;12.40;5.70;;;;;;;22.90;24.70;100548.02;108018;1254;74206;-66
2023/04/18 00:54:54;;;;;;;12.00;4.80;;;;;;;22.94;24.86;100550.89;107837;1255;70914;-66
2023/04/18 00:57:22;;;;;;;13.60;5.60;;;;;;;22.89;24.69;100543.08;108011;1255;71056;-66
2023/04/18 00:59:50;;;;;;;10.30;5.80;;;;;;;22.84;24.99;100549.55;107705;1256;59404;-65
2023/04/18 01:02:22;;;;;;;12.20;5.20;;;;;;;22.80;24.80;100541.64;107852;1256;60728;-67
2023/04/18 01:04:51;;;;;;;9.00;4.80;;;;;;;22.85;24.74;100543.21;107995;1256;73923;-67
2023/04/18 01:07:19;;;;;;;10.30;5.30;;;;;;;22.65;24.91;100541.79;107990;1255;70786;-65
2023/04/18 01:09:47;;;;;;;10.20;4.80;;;;;;;22.58;24.99;100544.36;107736;1256;72918;-66
2023/04/18 01:12:15;;;;;;;11.50;5.00;;;;;;;22.66;24.95;100543.02;107767;1255;59408;-67
2023/04/18 01:14:43;;;;;;;9.90;5.00;;;;;;;22.25;25.26;100539.48;107909;1256;61529;-66
2023/04/18 01:17:13;;;;;;;7.90;4.80;;;;;;;22.41;25.01;100544.09;108007;1256;72221;-66
2023/04/18 01:19:45;;;;;;;11.50;4.70;;;;;;;22.59;25.10;100543.36;108007;1256;71314;-66
2023/04/18 01:22:13;;;;;;;13.00;6.10;;;;;;;22.59;25.02;100543.88;107969;1259;71977;-66
2023/04/18 01:24:41;;;;;;;9.50;5.10;;;;;;;22.53;25.11;100542.45;107773;1256;60438;-65
2023/04/18 01:27:12;;;;;;;11.00;5.10;;;;;;;22.46;25.30;100540.15;107998;1255;60684;-66
2023/04/18 01:29:40;;;;;;;9.20;5.30;;;;;;;22.36;25.29;100537.86;107900;1256;73381;-66
2023/04/18 01:32:08;;;;;;;9.70;5.10;;;;;;;22.57;25.42;100539.75;107826;1256;70766;-67
2023/04/18 01:34:37;;;;;;;11.00;5.60;;;;;;;22.34;25.38;100539.95;107846;1255;72967;-66
2023/04/18 01:37:06;;;;;;;14.40;5.40;;;;;;;22.04;25.79;100537.33;107983;1255;59720;-65
2023/04/18 01:39:34;;;;;;;10.50;6.10;;;;;;;22.15;25.69;100540.23;107978;1255;61724;-67
2023/04/18 01:42:02;;;;;;;12.70;5.50;;;;;;;22.00;25.75;100537.48;107749;1257;73350;-66
2023/04/18 01:44:31;;;;;;;9.90;5.10;;;;;;;22.42;25.53;100542.02;107978;1255;70077;-66
2023/04/18 01:46:59;;;;;;;12.50;4.90;;;;;;;22.45;25.54;100539.10;107975;1259;73429;-66
2023/04/18 01:49:27;;;;;;;11.60;5.40;;;;;;;22.42;25.14;100541.69;107832;1255;59842;-67
2023/04/18 01:51:55;;;;;;;10.60;5.10;;;;;;;22.59;25.17;100538.49;107779;1256;60141;-66
2023/04/18 01:54:23;;;;;;;8.80;4.70;;;;;;;22.51;25.04;100537.92;108091;1253;71178;-67
2023/04/18 01:56:52;;;;;;;11.50;5.00;;;;;;;22.21;25.53;100537.80;108112;1253;71309;-66
2023/04/18 01:59:21;;;;;;;13.80;5.50;;;;;;;22.16;25.65;100533.92;107920;1253;72371;-66
2023/04/18 02:01:49;;;;;;;9.60;5.30;;;;;;;22.12;25.49;100531.89;108084;1258;60317;-66
2023/04/18 02:04:17;;;;;;;10.00;5.50;;;;;;;22.21;25.63;100532.45;108293;1256;61321;-66
2023/04/18 02:06:46;;;;;;;12.10;5.20;;;;;;;22.11;25.50;100530.17;108097;1253;73068;-66
2023/04/18 02:09:15;;;;;;;10.80;5.60;;;;;;;22.25;25.43;100524.22;108211;1253;68918;-66
2023/04/18 02:11:43;;;;;;;10.50;5.00;;;;;;;21.98;25.78;100524.55;108067;1252;73987;-66
2023/04/18 02:14:11;;;;;;;10.00;4.90;;;;;;;22.30;25.49;100522.75;108099;1253;59829;-66
2023/04/18 02:16:41;;;;;;;10.50;5.80;;;;;;;22.39;25.47;100522.76;108156;1252;61298;-66
2023/04/18 02:19:09;;;;;;;11.20;5.90;;;;;;;22.33;25.48;100526.11;108273;1253;70824;-67
2023/04/18 02:21:37;;;;;;;10.70;5.60;;;;;;;22.42;25.22;100529.67;108272;1253;69501;-66
2023/04/18 02:24:05;;;;;;;11.80;6.30;;;;;;;22.44;25.29;100528.81;108101;1252;73681;-67
2023/04/18 02:26:33;;;;;;;11.80;6.30;;;;;;;22.40;25.25;100526.33;108069;1252;59223;-66
2023/04/18 02:29:01;;;;;;;12.10;5.50;;;;;;;22.28;25.21;100526.20;108074;1253;61389;-68
2023/04/18 02:31:29;;;;;;;14.10;5.90;;;;;;;22.33;25.34;100527.71;108221;1256;72718;-67
2023/04/18 02:33:57;;;;;;;13.10;5.70;;;;;;;22.50;25.10;100528.89;108276;1252;70112;-67
2023/04/18 02:36:26;;;;;;;10.80;5.40;;;;;;;22.41;25.11;100526.93;108269;1253;72699;-67
2023/04/18 02:38:54;;;;;;;12.00;5.40;;;;;;;22.33;25.35;100524.52;108201;1256;60770;-65
2023/04/18 02:41:22;;;;;;;11.80;5.80;;;;;;;22.47;24.98;100525.56;108235;1256;59482;-66
2023/04/18 02:43:50;;;;;;;11.30;5.40;;;;;;;22.42;25.18;100528.30;108234;1253;72244;-66
2023/04/18 02:46:19;;;;;;;9.50;5.30;;;;;;;22.49;25.17;100526.29;108055;1253;70597;-64
2023/04/18 02:48:48;;;;;;;17.90;6.20;;;;;;;22.36;25.28;100522.86;108224;1252;72898;-62
2023/04/18 02:51:18;;;;;;;13.60;5.80;;;;;;;22.51;25.19;100528.85;108208;1253;60117;-64
2023/04/18 02:53:47;;;;;;;18.50;6.10;;;;;;;22.79;24.99;100535.82;108123;1256;59506;-64
2023/04/18 02:56:16;;;;;;;10.70;5.70;;;;;;;22.68;25.10;100528.50;108215;1253;72923;-67
2023/04/18 02:59:04;;;;;;;12.70;5.80;;;;;;;22.72;24.93;100531.38;108190;1253;70335;-65
2023/04/18 03:01:44;;;;;;;10.60;5.30;;;;;;;22.54;25.23;100532.11;108098;1252;72538;-65
2023/04/18 03:04:15;;;;;;;15.00;5.90;;;;;;;22.79;25.10;100527.45;108209;1253;59471;-66
2023/04/18 03:06:49;;;;;;;8.90;5.60;;;;;;;22.89;24.85;100524.14;108260;1253;60748;-65
2023/04/18 03:09:17;;;;;;;12.20;6.10;;;;;;;22.78;24.91;100527.73;108268;1253;73363;-67
2023/04/18 03:11:49;;;;;;;15.00;6.30;;;;;;;22.35;25.38;100522.73;108184;1252;69220;-67
2023/04/18 03:14:18;;;;;;;12.20;5.60;;;;;;;22.51;25.16;100525.94;108019;1253;72095;-65
2023/04/18 03:16:50;;;;;;;15.30;5.60;;;;;;;22.50;25.22;100525.67;108035;1252;59821;-65
2023/04/18 03:19:24;;;;;;;13.70;5.80;;;;;;;22.49;25.26;100526.16;108226;1253;59350;-65
2023/04/18 03:21:53;;;;;;;10.80;5.70;;;;;;;22.60;25.04;100527.88;108096;1253;71811;-64
2023/04/18 03:24:22;;;;;;;12.60;5.80;;;;;;;22.52;25.32;100529.48;108182;1252;70592;-64
2023/04/18 03:26:51;;;;;;;11.20;5.50;;;;;;;22.57;25.49;100530.30;108222;1253;73083;-66
2023/04/18 03:29:21;;;;;;;11.50;5.50;;;;;;;22.67;25.28;100529.66;108218;1252;59479;-65
2023/04/18 03:31:49;;;;;;;14.80;6.90;;;;;;;22.46;25.46;100531.18;108134;1252;60557;-67
2023/04/18 03:34:17;;;;;;;11.00;5.50;;;;;;;22.29;25.58;100535.91;108259;1251;73360;-67
2023/04/18 03:36:45;;;;;;;11.30;5.50;;;;;;;22.42;25.67;100536.84;108084;1251;70555;-68
2023/04/18 03:39:15;;;;;;;11.90;5.70;;;;;;;22.51;25.61;100536.69;108088;1253;73700;-65
2023/04/18 03:41:44;;;;;;;11.30;5.70;;;;;;;22.51;25.41;100537.59;108166;1251;59755;-66
2023/04/18 03:44:12;;;;;;;12.60;5.40;;;;;;;22.39;25.68;100536.91;108127;1251;61178;-65
2023/04/18 03:46:40;;;;;;;11.30;5.50;;;;;;;22.48;25.66;100534.95;108150;1251;73246;-62
2023/04/18 03:49:09;;;;;;;13.80;5.50;;;;;;;22.54;25.54;100534.98;108144;1251;69828;-65
2023/04/18 03:51:42;;;;;;;11.90;5.90;;;;;;;22.68;25.68;100538.90;108329;1255;73398;-66
2023/04/18 03:54:10;;;;;;;11.60;5.80;;;;;;;22.71;25.30;100538.29;108243;1251;62131;-66
2023/04/18 03:56:39;;;;;;;13.00;5.80;;;;;;;22.69;25.50;100539.64;108148;1254;59828;-66
2023/04/18 03:59:07;;;;;;;10.60;5.80;;;;;;;22.61;25.71;100538.90;108208;1253;70909;-65
2023/04/18 04:01:35;;;;;;;15.10;6.10;;;;;;;22.73;25.42;100538.64;108153;1251;69225;-67
2023/04/18 04:04:04;;;;;;;11.50;5.10;;;;;;;22.69;25.62;100540.75;108247;1251;71757;-65
2023/04/18 04:06:32;;;;;;;9.50;6.00;;;;;;;22.49;25.86;100537.70;108265;1255;61446;-66
2023/04/18 04:09:00;;;;;;;12.90;5.80;;;;;;;22.63;25.53;100540.00;108108;1251;60393;-66
2023/04/18 04:11:29;;;;;;;18.00;6.80;;;;;;;22.74;25.50;100540.69;108302;1251;74750;-66
2023/04/18 04:13:57;;;;;;;12.60;6.10;;;;;;;22.91;25.33;100535.95;108108;1251;68363;-66
2023/04/18 04:16:29;;;;;;;15.40;5.30;;;;;;;23.18;25.06;100534.41;108281;1253;72888;-68
2023/04/18 04:18:57;;;;;;;11.70;5.10;;;;;;;23.33;25.28;100532.44;108087;1251;60386;-66
2023/04/18 04:21:31;;;;;;;10.50;5.30;;;;;;;22.98;25.41;100536.67;108216;1251;61198;-68
2023/04/18 04:24:00;;;;;;;13.40;6.10;;;;;;;23.26;25.20;100531.11;108228;1251;72130;-67
2023/04/18 04:26:37;;;;;;;13.10;5.80;;;;;;;23.52;25.06;100531.92;108299;1251;71824;-67
2023/04/18 04:29:12;;;;;;;10.70;5.80;;;;;;;23.75;24.78;100530.90;108307;1254;73725;-67
2023/04/18 04:31:41;;;;;;;13.00;6.30;;;;;;;24.16;24.48;100530.38;108339;1251;60404;-67
2023/04/18 04:34:09;;;;;;;11.00;5.90;;;;;;;24.24;24.32;100528.23;108316;1251;60914;-68
2023/04/18 04:36:40;;;;;;;14.50;5.20;;;;;;;24.37;24.12;100530.16;108056;1251;74212;-67
2023/04/18 04:39:10;;;;;;;10.40;6.00;;;;;;;24.23;24.16;100526.04;108153;1251;71568;-67
2023/04/18 04:41:56;;;;;;;10.30;5.00;;;;;;;24.56;23.78;100525.92;108319;1251;71780;-67
2023/04/18 04:44:25;;;;;;;13.50;5.90;;;;;;;24.91;23.57;100526.42;108086;1251;60218;-66
2023/04/18 04:46:54;;;;;;;11.00;5.80;;;;;;;24.88;23.71;100528.52;108243;1251;61264;-68
2023/04/18 04:49:25;;;;;;;11.90;5.30;;;;;;;24.86;23.69;100527.05;108239;1251;74377;-65
2023/04/18 04:51:53;;;;;;;9.30;5.30;;;;;;;25.01;23.42;100528.54;108100;1256;70998;-68
2023/04/18 04:54:21;;;;;;;18.50;6.00;;;;;;;25.12;23.44;100532.82;108200;1251;73315;-66
2023/04/18 04:56:50;;;;;;;14.80;5.40;;;;;;;25.30;23.25;100534.92;108088;1251;61006;-67
2023/04/18 04:59:19;;;;;;;16.00;6.00;;;;;;;25.66;22.91;100536.59;108125;1251;61328;-67
2023/04/18 05:01:47;;;;;;;11.70;5.80;;;;;;;25.74;22.71;100539.38;108159;1251;73081;-66
2023/04/18 05:04:15;;;;;;;11.20;5.40;;;;;;;25.89;22.65;100545.77;108100;1253;70412;-66
2023/04/18 05:06:45;;;;;;;11.20;5.30;;;;;;;25.98;22.33;100546.72;108250;1251;72754;-66
2023/04/18 05:09:13;;;;;;;8.60;5.30;;;;;;;26.15;22.23;100547.80;108290;1253;60481;-67
2023/04/18 05:11:41;;;;;;;17.50;6.00;;;;;;;26.23;21.97;100550.24;108287;1251;61280;-68
2023/04/18 05:14:09;;;;;;;10.50;5.60;;;;;;;26.23;21.98;100554.09;108288;1256;73047;-67
2023/04/18 05:16:37;;;;;;;13.30;6.00;;;;;;;26.18;21.84;100557.54;108245;1251;70883;-68
2023/04/18 05:19:05;;;;;;;13.70;5.50;;;;;;;26.57;21.82;100560.34;108165;1251;70797;-67
2023/04/18 05:21:33;;;;;;;10.00;5.80;;;;;;;26.80;21.43;100556.64;108213;1256;61300;-67
2023/04/18 05:24:01;;;;;;;8.20;5.70;;;;;;;26.75;21.39;100560.00;108300;1251;60267;-68
2023/04/18 05:26:29;;;;;;;9.90;5.70;;;;;;;26.56;21.30;100557.33;108283;1251;75164;-67
2023/04/18 05:28:57;;;;;;;7.50;5.00;;;;;;;26.62;21.14;100557.98;108244;1251;71299;-66
2023/04/18 05:31:25;;;;;;;11.00;5.50;;;;;;;26.57;21.31;100555.97;108190;1251;73912;-67
2023/04/18 05:33:53;;;;;;;13.30;5.70;;;;;;;26.83;21.18;100557.89;108245;1251;60321;-67
2023/04/18 05:36:21;;;;;;;16.30;5.70;;;;;;;26.77;21.40;100557.77;108213;1251;60336;-67
2023/04/18 05:38:52;;;;;;;12.30;5.80;;;;;;;26.44;21.71;100553.43;108241;1255;73625;-67
2023/04/18 05:41:20;;;;;;;9.50;5.50;;;;;;;26.18;21.75;100554.52;108249;1256;70373;-67
2023/04/18 05:43:48;;;;;;;13.60;5.10;;;;;;;26.43;21.51;100555.16;108179;1254;71629;-67
2023/04/18 05:46:31;;;;;;;14.20;5.60;;;;;;;26.70;21.44;100556.70;108258;1251;59653;-67
2023/04/18 05:49:00;;;;;;;12.50;5.10;;;;;;;26.03;21.90;100553.80;108269;1252;59052;-67
2023/04/18 05:51:28;;;;;;;9.40;5.00;;;;;;;26.39;21.65;100552.85;108252;1253;73417;-66
2023/04/18 05:53:56;;;;;;;17.40;5.40;;;;;;;27.00;21.13;100557.30;108242;1251;71081;-67
2023/04/18 05:56:24;;;;;;;11.20;4.90;;;;;;;27.58;20.84;100555.53;108126;1252;71112;-67
2023/04/18 05:58:52;;;;;;;10.70;5.10;;;;;;;28.02;20.47;100549.52;108101;1254;60672;-68
2023/04/18 06:01:20;;;;;;;17.40;5.00;;;;;;;28.40;19.98;100550.57;108196;1253;60469;-67
2023/04/18 06:03:48;;;;;;;11.30;5.30;;;;;;;28.89;19.70;100549.41;108197;1253;74137;-67
2023/04/18 06:06:16;;;;;;;11.10;5.50;;;;;;;29.24;19.14;100550.67;108129;1255;71107;-67
2023/04/18 06:08:45;;;;;;;13.40;5.30;;;;;;;29.33;18.88;100546.25;107977;1253;73852;-67
2023/04/18 06:11:14;;;;;;;19.00;5.80;;;;;;;29.49;18.88;100553.23;108178;1252;61818;-68
2023/04/18 06:13:42;;;;;;;13.50;5.60;;;;;;;29.34;19.28;100553.20;108180;1255;61732;-67
2023/04/18 06:16:10;;;;;;;17.20;6.00;;;;;;;29.00;19.39;100554.02;108141;1255;74135;-67
2023/04/18 06:18:38;;;;;;;23.00;6.50;;;;;;;28.77;19.49;100549.61;108147;1255;71290;-67
2023/04/18 06:21:06;;;;;;;20.80;7.00;;;;;;;28.77;19.79;100545.86;108030;1251;72283;-67
2023/04/18 06:23:34;;;;;;;23.10;6.10;;;;;;;29.06;19.83;100548.63;108159;1253;61057;-67
2023/04/18 06:26:02;;;;;;;16.90;6.80;;;;;;;29.15;19.65;100547.17;108178;1255;60538;-67
2023/04/18 06:28:32;;;;;;;26.60;6.90;;;;;;;28.46;20.41;100547.14;108311;1252;74094;-67
2023/04/18 06:31:00;;;;;;;17.70;6.60;;;;;;;28.21;20.58;100551.76;108166;1253;70855;-67
2023/04/18 06:33:32;;;;;;;20.20;7.80;;;;;;;28.00;20.62;100554.45;108142;1252;73618;-67
2023/04/18 06:36:00;;;;;;;30.00;8.40;;;;;;;27.71;20.47;100557.60;108128;1253;60620;-67
2023/04/18 06:38:28;;;;;;;23.20;8.00;;;;;;;27.38;20.92;100558.38;108186;1253;61119;-68
2023/04/18 06:40:56;;;;;;;19.40;8.00;;;;;;;27.37;21.01;100554.69;108065;1253;72932;-67
2023/04/18 06:43:24;;;;;;;25.40;7.00;;;;;;;27.74;20.79;100551.88;108138;1253;70774;-67
2023/04/18 06:45:53;;;;;;;19.00;8.20;;;;;;;27.76;20.50;100559.40;108179;1253;72680;-68
2023/04/18 06:48:21;;;;;;;21.40;6.10;;;;;;;27.40;20.94;100557.64;108220;1253;60432;-67
2023/04/18 06:50:49;;;;;;;17.40;5.80;;;;;;;27.18;20.99;100557.06;108170;1255;60323;-67
2023/04/18 06:53:17;;;;;;;16.00;5.60;;;;;;;27.02;21.23;100558.23;108264;1253;73152;-68
2023/04/18 06:55:45;;;;;;;12.40;5.20;;;;;;;26.83;21.40;100560.29;108292;1253;69948;-71
2023/04/18 06:58:15;;;;;;;15.80;5.20;;;;;;;26.76;21.39;100561.30;108355;1253;72927;-68
2023/04/18 07:00:43;;;;;;;26.40;8.50;;;;;;;26.66;21.46;100567.41;108382;1251;60788;-68
2023/04/18 07:03:11;;;;;;;18.50;5.50;;;;;;;26.46;21.59;100566.21;108320;1251;61075;-68
2023/04/18 07:05:40;;;;;;;32.80;7.70;;;;;;;26.43;21.62;100564.55;108303;1251;75056;-69
2023/04/18 07:08:08;;;;;;;9.60;5.30;;;;;;;26.34;22.11;100568.42;108291;1252;69964;-68
2023/04/18 07:10:36;;;;;;;13.40;5.30;;;;;;;26.02;22.29;100568.27;108208;1253;72011;-68
2023/04/18 07:13:04;;;;;;;21.50;5.70;;;;;;;26.18;22.10;100564.58;108108;1253;61294;-67
2023/04/18 07:15:35;;;;;;;20.60;6.30;;;;;;;26.35;22.19;100568.56;108261;1251;60683;-66
2023/04/18 07:18:03;;;;;;;17.50;4.90;;;;;;;26.43;22.08;100561.46;108149;1251;73541;-67
2023/04/18 07:20:32;;;;;;;16.20;5.20;;;;;;;26.47;22.06;100560.21;108168;1251;70158;-68
2023/04/18 07:23:00;;;;;;;15.00;5.90;;;;;;;26.91;21.87;100565.41;108184;1253;72891;-67
2023/04/18 07:25:28;;;;;;;12.00;5.00;;;;;;;27.46;21.09;100563.58;108167;1254;60274;-67
2023/04/18 07:27:56;;;;;;;23.50;6.40;;;;;;;27.52;20.97;100561.56;108214;1253;60958;-66
2023/04/18 07:30:24;;;;;;;11.10;5.40;;;;;;;27.44;21.12;100560.76;108193;1253;73583;-67
2023/04/18 07:32:52;;;;;;;19.20;5.60;;;;;;;27.93;20.79;100555.04;108268;1253;69364;-67
2023/04/18 07:35:20;;;;;;;20.40;6.60;;;;;;;28.25;20.54;100555.94;108264;1253;74041;-67
2023/04/18 07:37:48;;;;;;;13.00;5.00;;;;;;;28.69;19.90;100557.39;108272;1251;61191;-67
2023/04/18 07:40:16;;;;;;;30.00;8.20;;;;;;;28.14;20.54;100553.85;108132;1251;61202;-67
2023/04/18 07:42:44;;;;;;;19.80;7.10;;;;;;;28.44;20.56;100550.98;108184;1253;75043;-67
2023/04/18 07:45:14;;;;;;;12.80;5.90;;;;;;;29.26;19.90;100552.95;108203;1251;70642;-67
2023/04/18 07:47:42;;;;;;;13.20;5.80;;;;;;;29.49;19.82;100550.44;108156;1251;72548;-67
2023/04/18 07:50:10;;;;;;;17.90;5.80;;;;;;;29.43;19.48;100552.01;108203;1254;60307;-67
2023/04/18 07:52:38;;;;;;;12.10;5.70;;;;;;;29.11;19.78;100554.05;108217;1251;60312;-67
2023/04/18 07:55:07;;;;;;;20.50;5.20;;;;;;;29.11;19.64;100554.32;108189;1253;73713;-67
2023/04/18 07:57:35;;;;;;;10.20;5.00;;;;;;;29.41;19.62;100549.39;108168;1253;70298;-68
2023/04/18 08:00:05;;;;;;;14.60;4.80;;;;;;;29.50;19.78;100546.90;108176;1253;71476;-68
2023/04/18 08:02:40;;;;;;;12.30;4.90;;;;;;;30.15;18.92;100545.11;108229;1253;60404;-67
2023/04/18 08:05:09;;;;;;;11.90;5.10;;;;;;;30.19;19.27;100538.84;108187;1253;60153;-67
2023/04/18 08:07:37;;;;;;;10.40;4.60;;;;;;;30.34;19.25;100540.96;108238;1253;73001;-68
2023/04/18 08:10:06;;;;;;;14.40;4.60;;;;;;;30.35;19.48;100538.16;108204;1253;70522;-67
2023/04/18 08:12:35;;;;;;;13.30;4.40;;;;;;;30.92;19.14;100539.95;108244;1253;73617;-68
2023/04/18 08:15:04;;;;;;;17.10;6.10;;;;;;;30.96;18.81;100540.23;108228;1252;60178;-68
2023/04/18 08:17:37;;;;;;;13.50;4.90;;;;;;;30.99;18.68;100534.23;108239;1252;61281;-66
2023/04/18 08:20:06;;;;;;;6.90;3.50;;;;;;;31.02;18.58;100533.19;108219;1253;74875;-66
2023/04/18 08:22:34;;;;;;;14.20;4.90;;;;;;;30.93;18.85;100530.05;108255;1253;70382;-67
2023/04/18 08:25:17;;;;;;;14.50;4.00;;;;;;;30.82;18.82;100528.04;108181;1253;73905;-67
2023/04/18 08:27:45;;;;;;;13.60;4.80;;;;;;;30.62;18.93;100525.77;108175;1253;61294;-67
2023/04/18 08:30:13;;;;;;;16.80;4.70;;;;;;;30.71;18.78;100524.73;108137;1253;60282;-67
2023/04/18 08:32:41;;;;;;;11.20;4.50;;;;;;;31.08;18.63;100525.56;108274;1253;73984;-67
2023/04/18 08:35:09;;;;;;;9.70;4.30;;;;;;;31.24;18.33;100523.66;108162;1253;71283;-67
2023/04/18 08:37:37;;;;;;;16.70;5.10;;;;;;;30.68;18.48;100519.16;108147;1253;73173;-67
2023/04/18 08:40:06;;;;;;;12.10;4.10;;;;;;;30.79;18.48;100520.43;108230;1252;61496;-68
2023/04/18 08:42:34;;;;;;;14.30;3.80;;;;;;;30.70;18.44;100519.12;108199;1253;60319;-67
2023/04/18 08:45:04;;;;;;;15.70;4.10;;;;;;;30.49;18.52;100516.84;108195;1252;73856;-68
2023/04/18 08:47:34;;;;;;;13.10;3.90;;;;;;;30.80;18.38;100517.34;108166;1253;71316;-67
2023/04/18 08:50:02;;;;;;;18.00;4.40;;;;;;;30.67;18.37;100512.58;108150;1253;73023;-67
2023/04/18 08:52:30;;;;;;;9.00;3.70;;;;;;;30.69;18.31;100512.29;108128;1253;61377;-68
2023/04/18 08:55:01;;;;;;;7.80;4.10;;;;;;;30.36;18.61;100509.94;108053;1252;60553;-67
2023/04/18 08:57:30;;;;;;;14.50;4.40;;;;;;;30.49;18.64;100511.41;108224;1251;75014;-66
2023/04/18 09:00:04;;;;;;;10.00;3.30;;;;;;;30.79;18.45;100511.93;108260;1251;68390;-67
2023/04/18 09:02:41;;;;;;;9.50;3.80;;;;;;;30.65;18.43;100512.45;108246;1254;73907;-67
2023/04/18 09:05:13;;;;;;;11.50;3.90;;;;;;;30.38;18.42;100507.63;108214;1252;60448;-67
2023/04/18 09:07:41;;;;;;;11.10;3.80;;;;;;;30.43;18.70;100508.79;108248;1254;60395;-67
2023/04/18 09:10:10;;;;;;;5.30;3.10;;;;;;;30.17;18.58;100506.81;108199;1251;73769;-67
2023/04/18 09:12:50;;;;;;;11.40;3.70;;;;;;;29.94;19.12;100503.13;108197;1251;69474;-67
2023/04/18 09:15:22;;;;;;;9.00;3.40;;;;;;;30.12;18.55;100500.36;108255;1253;71709;-67
2023/04/18 09:17:54;;;;;;;9.00;3.10;;;;;;;30.01;18.13;100497.08;108095;1251;61516;-67
2023/04/18 09:20:42;;;;;;;8.70;3.50;;;;;;;29.84;18.11;100495.34;108356;1251;60268;-67
2023/04/18 09:23:13;;;;;;;12.20;3.30;;;;;;;29.68;18.18;100492.88;108278;1254;72879;-67
2023/04/18 09:25:43;;;;;;;7.30;3.20;;;;;;;29.48;18.68;100491.25;108337;1253;70990;-67
2023/04/18 09:28:31;;;;;;;11.10;3.00;;;;;;;29.66;18.33;100487.29;108329;1254;73360;-67
2023/04/18 09:31:10;;;;;;;6.20;2.50;;;;;;;29.77;18.31;100493.67;108339;1251;60600;-68
2023/04/18 09:33:43;;;;;;;7.20;2.70;;;;;;;29.82;18.19;100496.48;108395;1251;60394;-67
2023/04/18 09:36:16;;;;;;;12.90;3.50;;;;;;;29.98;17.94;100495.83;108285;1253;73056;-68
2023/04/18 09:38:45;;;;;;;9.80;3.20;;;;;;;30.09;18.15;100496.95;108379;1256;70181;-66
2023/04/18 09:41:16;;;;;;;11.70;4.70;;;;;;;30.34;17.94;100497.21;108315;1253;72689;-68
2023/04/18 09:43:48;;;;;;;11.30;3.70;;;;;;;30.43;18.01;100499.17;108295;1253;60760;-68
2023/04/18 09:46:16;;;;;;;10.70;3.40;;;;;;;30.55;18.07;100494.37;108313;1251;61365;-65
2023/04/18 09:48:45;;;;;;;10.20;3.30;;;;;;;30.44;18.08;100493.68;108173;1251;74332;-68
2023/04/18 09:51:13;;;;;;;12.90;4.10;;;;;;;30.64;18.25;100493.70;108271;1253;71235;-68
2023/04/18 09:53:49;;;;;;;11.10;3.60;;;;;;;30.81;18.31;100496.80;108319;1252;71500;-69
2023/04/18 09:56:24;;;;;;;10.00;3.70;;;;;;;30.09;18.93;100491.39;108212;1253;60418;-67
2023/04/18 09:59:07;;;;;;;9.10;3.00;;;;;;;30.10;19.31;100487.14;108326;1255;59803;-67
2023/04/18 10:01:35;;;;;;;10.00;3.50;;;;;;;29.83;19.12;100482.99;108325;1251;72978;-67
2023/04/18 10:04:05;;;;;;;8.60;2.60;;;;;;;30.08;19.11;100481.77;108271;1251;69783;-69
2023/04/18 10:06:37;;;;;;;8.00;3.20;;;;;;;30.23;18.79;100478.67;108336;1253;74379;-67
2023/04/18 10:09:06;;;;;;;11.00;3.20;;;;;;;30.47;18.57;100479.91;108457;1251;60540;-68
2023/04/18 10:11:35;;;;;;;9.30;3.20;;;;;;;31.02;18.09;100480.97;108117;1253;59910;-67
2023/04/18 10:14:08;;;;;;;15.10;3.50;;;;;;;30.56;18.33;100480.86;108159;1253;72938;-69
2023/04/18 10:16:36;;;;;;;11.40;3.30;;;;;;;30.11;18.60;100475.86;108306;1253;71411;-66
2023/04/18 10:19:24;;;;;;;11.50;2.60;;;;;;;30.91;17.69;100472.05;108176;1257;72913;-68
2023/04/18 10:21:53;;;;;;;11.00;2.30;;;;;;;29.49;17.94;100475.06;108207;1252;61596;-67
2023/04/18 10:24:43;;;;;;;11.00;3.00;;;;;;;29.52;17.86;100475.60;108287;1252;60424;-69
2023/04/18 10:27:12;;;;;;;14.30;2.40;;;;;;;29.98;17.43;100473.93;108275;1251;74690;-66
2023/04/18 10:29:50;;;;;;;9.40;2.60;;;;;;;29.92;17.61;100470.96;108245;1251;69464;-67
2023/04/18 10:32:19;;;;;;;4.50;2.20;;;;;;;30.41;17.38;100472.25;108251;1256;73689;-68
2023/04/18 10:34:48;;;;;;;12.70;2.80;;;;;;;30.55;17.27;100470.24;108179;1251;60999;-67
2023/04/18 10:37:17;;;;;;;25.50;3.40;;;;;;;30.48;17.29;100473.23;108280;1256;61376;-67
2023/04/18 10:39:51;;;;;;;12.40;3.30;;;;;;;30.44;17.54;100475.02;108308;1254;74207;-67
2023/04/18 10:42:19;;;;;;;7.40;3.10;;;;;;;30.32;17.52;100470.99;108310;1251;69523;-67
2023/04/18 10:45:15;;;;;;;7.50;2.50;;;;;;;30.25;17.78;100473.23;108012;1254;72753;-67
2023/04/18 10:47:43;;;;;;;7.20;2.70;;;;;;;30.61;17.87;100476.29;108237;1256;60565;-68
2023/04/18 10:50:12;;;;;;;12.00;2.90;;;;;;;30.11;18.23;100471.14;108300;1256;60318;-67
2023/04/18 10:52:40;;;;;;;10.30;3.10;;;;;;;29.88;18.37;100475.02;108190;1251;75531;-68
2023/04/18 10:55:27;;;;;;;7.50;2.90;;;;;;;29.75;18.59;100469.43;108259;1253;70443;-66
2023/04/18 10:57:55;;;;;;;8.10;2.40;;;;;;;30.13;18.02;100467.09;108175;1253;71835;-66
2023/04/18 11:00:23;;;;;;;13.10;2.50;;;;;;;30.00;18.42;100469.20;108009;1258;60406;-67
2023/04/18 11:02:54;;;;;;;13.20;2.50;;;;;;;29.88;18.46;100469.92;107935;1257;60326;-67
2023/04/18 11:05:27;;;;;;;8.20;2.60;;;;;;;30.27;18.18;100472.65;108219;1253;72683;-67
2023/04/18 11:07:55;;;;;;;9.70;3.10;;;;;;;30.25;18.28;100471.94;108195;1256;71500;-67
2023/04/18 11:10:25;;;;;;;14.00;2.60;;;;;;;30.31;17.95;100472.29;108130;1253;74122;-68
2023/04/18 11:12:53;;;;;;;11.20;2.60;;;;;;;30.50;17.90;100470.71;108155;1253;60409;-67
2023/04/18 11:15:22;;;;;;;10.50;2.60;;;;;;;30.06;18.19;100469.15;107976;1253;61488;-67
2023/04/18 11:17:55;;;;;;;11.30;2.90;;;;;;;29.74;18.50;100467.02;108129;1253;74494;-69
2023/04/18 11:20:24;;;;;;;7.20;2.60;;;;;;;29.56;18.83;100464.84;108206;1253;68752;-67
2023/04/18 11:22:56;;;;;;;13.40;2.90;;;;;;;29.80;18.58;100461.63;108158;1253;72632;-68